< < Back
Terminal Aerodrome Forecast


Current Version              Previous Versions:   1  2  3  4  5  6  7  8  9  

Terminal Aerodrome Forecast

122
FTUS42 KTAE 262330
TAFTLH
TAF
KTLH 262330Z 2700/2724 33007KT P6SM -RA BKN090
     FM270100 VRB03KT P6SM SCT100 BKN250
      TEMPO 2711/2713 00000KT 3SM BR SCT002
     FM272100 21008KT P6SM SCT050=

Latest METAR

373
SAUS80 KWBC 270400 RRB
MTRTLH
METAR KTLH 270353Z AUTO 15003KT 10SM CLR 24/22 A3007 RMK AO2 SLP180
T02440222 $


USA.gov is the U.S. government's official web portal to all federal, state and local government web resources and services.